Terminal Aerodrome Forecast
Issued by NWS Huntsville, AL

Home | Current Version | Previous Version | Text Only | Print | Product List | Glossary On
Versions: 1 2 3 4 5 6 7 8 9 10 11 12 13 14 15 16 17 18 19
000
FTUS44 KHUN 171733
TAFMSL
TAF
KMSL 171733Z 1718/1818 20011G18KT 5SM -SHRA BR SCT007 OVC015
      TEMPO 1718/1722 2SM SHRA BR BKN009 OVC013
     FM180100 26009KT P6SM VCSH BKN009 OVC030
     FM180700 33005KT P6SM SCT010 BKN020
     FM181500 06004KT P6SM BKN025=

USA.gov is the U.S. government's official web portal to all federal, state and local government web resources and services.